Time;durP1;ratioP1;P1;durP2;ratioP2;P2;SDS_P1;SDS_P2;PMS_P1;PMS_P2;Temp;Humidity;BMP_temperature;BMP_pressure;BME280_temperature;BME280_humidity;BME280_pressure;Samples;Min_cycle;Max_cycle;Signal;HPM_P1;HPM_P2
2023/03/17 00:00:51;;;;;;;6.90;4.50;;;8.40;99.90;;;;;;4981332;28;20322;-91
2023/03/17 00:03:24;;;;;;;5.77;4.33;;;8.40;99.90;;;;;;4977513;28;20297;-91
2023/03/17 00:05:56;;;;;;;7.13;4.70;;;8.40;99.90;;;;;;4977076;28;20202;-90
2023/03/17 00:08:30;;;;;;;6.03;3.90;;;8.40;99.90;;;;;;4975898;28;20217;-89
2023/03/17 00:10:58;;;;;;;6.47;4.23;;;8.40;99.90;;;;;;4978408;28;20241;-91
2023/03/17 00:13:25;;;;;;;9.33;4.10;;;8.40;99.90;;;;;;4981485;28;20289;-92
2023/03/17 00:16:01;;;;;;;6.70;4.63;;;8.40;99.90;;;;;;4975459;28;20199;-90
2023/03/17 00:18:30;;;;;;;7.20;4.10;;;8.30;99.90;;;;;;4980460;28;20278;-90
2023/03/17 00:20:59;;;;;;;5.53;4.07;;;8.30;99.90;;;;;;4981290;28;20245;-89
2023/03/17 00:23:34;;;;;;;6.17;4.10;;;8.30;99.90;;;;;;4996107;28;20215;-91
2023/03/17 00:26:07;;;;;;;5.90;4.37;;;8.30;99.90;;;;;;4973587;28;20211;-91
2023/03/17 00:28:36;;;;;;;8.03;3.70;;;8.20;99.90;;;;;;4984039;28;20689;-91
2023/03/17 00:31:20;;;;;;;5.57;4.40;;;8.20;99.90;;;;;;5000940;28;20207;-92
2023/03/17 00:33:51;;;;;;;7.50;4.57;;;8.20;99.90;;;;;;4992680;28;20226;-90
2023/03/17 00:36:22;;;;;;;5.90;4.13;;;8.10;99.90;;;;;;4986929;28;20207;-90
2023/03/17 00:38:51;;;;;;;6.00;4.40;;;8.10;99.90;;;;;;4984153;28;20272;-91
2023/03/17 00:41:21;;;;;;;7.10;4.53;;;8.00;99.90;;;;;;4986398;28;20200;-90
2023/03/17 00:43:49;;;;;;;8.63;3.80;;;8.00;99.90;;;;;;4991175;28;20225;-91
2023/03/17 00:46:34;;;;;;;8.97;5.10;;;8.00;99.90;;;;;;4997709;28;20223;-89
2023/03/17 00:49:09;;;;;;;5.73;4.30;;;8.00;99.90;;;;;;4985108;28;20309;-92
2023/03/17 00:51:38;;;;;;;6.40;4.27;;;8.20;99.90;;;;;;4996665;28;20222;-91
2023/03/17 00:54:05;;;;;;;6.50;4.80;;;8.00;99.90;;;;;;4974429;28;20222;-91
2023/03/17 00:56:32;;;;;;;5.53;4.43;;;8.20;99.90;;;;;;4979486;28;20221;-90
2023/03/17 00:59:01;;;;;;;7.07;4.57;;;8.00;99.90;;;;;;4976313;28;20227;-92
2023/03/17 01:01:29;;;;;;;6.57;4.80;;;8.00;99.90;;;;;;4987736;28;20241;-91
2023/03/17 01:03:56;;;;;;;6.87;5.27;;;8.00;99.90;;;;;;4992848;28;20285;-91
2023/03/17 01:06:24;;;;;;;6.43;4.80;;;7.90;99.90;;;;;;5002900;28;20211;-91
2023/03/17 01:08:54;;;;;;;8.67;5.00;;;8.40;99.90;;;;;;4993886;28;20209;-90
2023/03/17 01:11:22;;;;;;;6.43;4.50;;;7.90;99.90;;;;;;4994012;28;20252;-89
2023/03/17 01:13:51;;;;;;;8.20;5.57;;;7.80;99.90;;;;;;4990282;28;20237;-91
2023/03/17 01:16:18;;;;;;;8.10;5.00;;;8.50;99.90;;;;;;5006947;28;20226;-90
2023/03/17 01:18:46;;;;;;;6.47;4.60;;;6.90;99.90;;;;;;5008609;28;20308;-91
2023/03/17 01:21:14;;;;;;;6.40;4.67;;;7.70;99.90;;;;;;5002839;28;20219;-91
2023/03/17 01:23:42;;;;;;;7.87;4.87;;;7.70;99.90;;;;;;5009143;28;20216;-90
2023/03/17 01:26:11;;;;;;;6.50;4.87;;;7.80;99.90;;;;;;5000404;28;20198;-91
2023/03/17 01:28:38;;;;;;;7.93;4.87;;;7.60;99.90;;;;;;5007727;28;20192;-92
2023/03/17 01:31:05;;;;;;;5.70;4.57;;;7.70;99.90;;;;;;4995257;28;20213;-91
2023/03/17 01:33:33;;;;;;;6.60;4.70;;;8.40;99.90;;;;;;4995042;28;20214;-91
2023/03/17 01:36:10;;;;;;;9.23;4.63;;;8.70;99.90;;;;;;4999947;28;20319;-90
2023/03/17 01:38:41;;;;;;;7.63;5.10;;;8.20;99.90;;;;;;5000330;28;20746;-91
2023/03/17 01:41:09;;;;;;;6.60;5.00;;;8.20;99.90;;;;;;4999281;28;20440;-90
2023/03/17 01:43:39;;;;;;;6.93;4.60;;;8.00;99.90;;;;;;5003445;28;20834;-90
2023/03/17 01:46:28;;;;;;;8.40;5.33;;;7.80;99.90;;;;;;4974494;28;20685;-90
2023/03/17 01:49:35;;;;;;;6.13;4.70;;;7.80;99.90;;;;;;4989197;28;20297;-91
2023/03/17 01:52:21;;;;;;;5.70;4.37;;;7.70;99.90;;;;;;5007795;28;20296;-91
2023/03/17 01:55:00;;;;;;;7.73;4.73;;;7.70;99.90;;;;;;4990982;28;20308;-91
2023/03/17 01:57:35;;;;;;;8.00;4.73;;;7.70;99.90;;;;;;5005881;28;20205;-92
2023/03/17 02:00:11;;;;;;;8.20;5.10;;;7.60;99.90;;;;;;4993258;28;20246;-91
2023/03/17 02:02:49;;;;;;;10.63;4.93;;;7.60;99.90;;;;;;4971180;28;20301;-90
2023/03/17 02:05:22;;;;;;;5.37;4.03;;;7.50;99.90;;;;;;4972723;28;20208;-89
2023/03/17 02:07:50;;;;;;;8.70;5.37;;;7.50;99.90;;;;;;4989483;28;20203;-90
2023/03/17 02:10:24;;;;;;;6.10;4.63;;;7.50;99.90;;;;;;4971202;28;20201;-91
2023/03/17 02:12:58;;;;;;;7.93;4.60;;;7.50;99.90;;;;;;4981155;28;20345;-90
2023/03/17 02:15:43;;;;;;;7.57;4.87;;;7.50;99.90;;;;;;4995692;28;20218;-90
2023/03/17 02:18:13;;;;;;;8.03;4.97;;;7.40;99.90;;;;;;4995133;28;20249;-90
2023/03/17 02:20:41;;;;;;;4.27;3.87;;;8.90;99.90;;;;;;4996035;28;20412;-90
2023/03/17 02:23:09;;;;;;;7.27;4.63;;;8.10;99.90;;;;;;5013535;28;20249;-90
2023/03/17 02:25:38;;;;;;;9.83;4.60;;;8.10;99.90;;;;;;5001274;28;20223;-91
2023/03/17 02:28:15;;;;;;;7.93;4.97;;;9.20;99.90;;;;;;4995823;28;20218;-90
2023/03/17 02:30:44;;;;;;;6.10;4.60;;;7.30;99.90;;;;;;4996370;28;20268;-90
2023/03/17 02:33:18;;;;;;;8.53;4.90;;;7.60;99.90;;;;;;4999209;28;20205;-91
2023/03/17 02:35:58;;;;;;;7.03;4.73;;;6.60;99.90;;;;;;4985285;28;20201;-90
2023/03/17 02:38:27;;;;;;;7.37;5.00;;;7.10;99.90;;;;;;4992451;28;20228;-92
2023/03/17 02:40:54;;;;;;;8.53;4.70;;;7.80;99.90;;;;;;4995302;28;20244;-89
2023/03/17 02:43:21;;;;;;;7.27;4.60;;;7.40;99.90;;;;;;4996735;28;20228;-90
2023/03/17 02:45:48;;;;;;;6.80;4.73;;;8.20;99.90;;;;;;4988676;28;20238;-89
2023/03/17 02:48:16;;;;;;;7.13;4.83;;;7.30;99.90;;;;;;4990176;28;20258;-90
2023/03/17 02:50:44;;;;;;;7.17;4.90;;;6.80;99.90;;;;;;4985911;28;20315;-89
2023/03/17 02:53:11;;;;;;;7.73;4.67;;;8.40;99.90;;;;;;4983500;28;20238;-90
2023/03/17 02:55:44;;;;;;;6.47;4.70;;;6.90;99.90;;;;;;4985415;28;20210;-90
2023/03/17 02:58:12;;;;;;;7.60;4.77;;;7.80;99.90;;;;;;4984777;28;20204;-92
2023/03/17 03:00:47;;;;;;;5.33;4.43;;;7.60;99.90;;;;;;4984635;28;20226;-90
2023/03/17 03:03:19;;;;;;;9.53;4.93;;;7.00;99.90;;;;;;4983598;28;20229;-90
2023/03/17 03:05:57;;;;;;;6.93;4.17;;;6.90;99.90;;;;;;4969123;28;20200;-89
2023/03/17 03:08:39;;;;;;;5.93;4.60;;;7.10;99.90;;;;;;4983707;28;20917;-91
2023/03/17 03:11:16;;;;;;;7.83;4.40;;;7.10;99.90;;;;;;4963517;28;20202;-90
2023/03/17 03:13:46;;;;;;;6.87;4.40;;;7.20;99.90;;;;;;4998335;28;20233;-91
2023/03/17 03:16:15;;;;;;;7.10;4.37;;;7.20;99.90;;;;;;4983870;28;20240;-92
2023/03/17 03:18:46;;;;;;;7.77;4.63;;;7.20;99.90;;;;;;4982897;28;20680;-91
2023/03/17 03:21:15;;;;;;;6.83;4.67;;;7.20;99.90;;;;;;4966983;28;20219;-90
2023/03/17 03:23:52;;;;;;;9.83;5.30;;;7.10;99.90;;;;;;4983333;28;20208;-91
2023/03/17 03:26:20;;;;;;;7.23;4.83;;;7.20;99.90;;;;;;4979662;28;20201;-92
2023/03/17 03:28:58;;;;;;;9.43;4.90;;;7.20;99.90;;;;;;4964828;28;20201;-91
2023/03/17 03:31:26;;;;;;;7.23;4.93;;;7.20;99.90;;;;;;4964373;28;20861;-90
2023/03/17 03:33:57;;;;;;;7.23;4.60;;;7.10;99.90;;;;;;4963770;28;20301;-90
2023/03/17 03:36:25;;;;;;;8.80;5.03;;;7.20;99.90;;;;;;4965574;28;20629;-90
2023/03/17 03:38:54;;;;;;;7.33;4.80;;;7.20;99.90;;;;;;4969582;28;20230;-90
2023/03/17 03:41:21;;;;;;;5.47;3.80;;;7.20;99.90;;;;;;4983669;28;20210;-91
2023/03/17 03:43:52;;;;;;;8.07;4.37;;;7.20;99.90;;;;;;4983388;28;20206;-90
2023/03/17 03:46:22;;;;;;;6.67;4.73;;;7.20;99.90;;;;;;4983336;28;20663;-91
2023/03/17 03:49:00;;;;;;;6.70;4.50;;;7.30;99.90;;;;;;4990253;28;20333;-90
2023/03/17 03:51:29;;;;;;;5.93;4.63;;;7.30;99.90;;;;;;4991488;28;20223;-90
2023/03/17 03:53:57;;;;;;;6.33;4.50;;;7.10;99.90;;;;;;4999300;28;20206;-91
2023/03/17 03:56:28;;;;;;;8.07;4.43;;;7.30;99.90;;;;;;4996577;28;20198;-90
2023/03/17 03:58:56;;;;;;;6.40;4.27;;;7.30;99.90;;;;;;4982873;28;20299;-90
2023/03/17 04:01:24;;;;;;;8.33;4.73;;;7.20;99.90;;;;;;4983643;28;20235;-91
2023/03/17 04:03:57;;;;;;;6.60;3.97;;;7.20;99.90;;;;;;4983646;28;20202;-89
2023/03/17 04:06:24;;;;;;;7.23;4.43;;;7.30;99.90;;;;;;4982602;28;20229;-91
2023/03/17 04:08:56;;;;;;;7.30;4.27;;;7.30;99.90;;;;;;4999607;28;20193;-92
2023/03/17 04:11:24;;;;;;;7.73;4.40;;;7.30;99.90;;;;;;4982839;28;20241;-91
2023/03/17 04:13:52;;;;;;;8.83;4.20;;;7.30;99.90;;;;;;4982686;28;20237;-91
2023/03/17 04:16:23;;;;;;;7.30;4.17;;;7.20;99.90;;;;;;4983282;28;20217;-91
2023/03/17 04:18:51;;;;;;;6.73;3.97;;;7.30;99.90;;;;;;4982861;28;20241;-92
2023/03/17 04:21:20;;;;;;;6.83;4.30;;;7.30;99.90;;;;;;4999210;28;20214;-91
2023/03/17 04:23:47;;;;;;;5.60;4.20;;;7.40;99.90;;;;;;4990597;28;20215;-90
2023/03/17 04:26:22;;;;;;;6.20;4.30;;;7.40;99.90;;;;;;4970281;28;20207;-90
2023/03/17 04:28:50;;;;;;;6.50;4.33;;;7.40;99.90;;;;;;4976848;28;20234;-90
2023/03/17 04:31:17;;;;;;;6.27;3.63;;;7.40;99.90;;;;;;4985276;28;20229;-91
2023/03/17 04:33:48;;;;;;;5.47;3.70;;;7.40;99.90;;;;;;4999424;28;20216;-89
2023/03/17 04:36:25;;;;;;;4.80;3.60;;;7.40;99.90;;;;;;4988241;28;20565;-91
2023/03/17 04:38:54;;;;;;;4.90;3.57;;;7.50;99.90;;;;;;4988566;28;20325;-91
2023/03/17 04:41:23;;;;;;;7.17;3.60;;;7.40;99.90;;;;;;5002734;28;20252;-91
2023/03/17 04:43:55;;;;;;;7.97;4.07;;;7.50;99.90;;;;;;4987782;28;20214;-91
2023/03/17 04:46:22;;;;;;;7.03;3.40;;;7.50;99.90;;;;;;4998079;28;20714;-90
2023/03/17 04:48:51;;;;;;;6.17;3.70;;;7.40;99.90;;;;;;4988087;28;20229;-91
2023/03/17 04:51:19;;;;;;;4.67;3.20;;;7.50;99.90;;;;;;4989096;28;20468;-90
2023/03/17 04:53:47;;;;;;;5.23;3.70;;;7.40;99.90;;;;;;4991032;28;20245;-89
2023/03/17 04:56:17;;;;;;;4.63;3.57;;;7.40;99.90;;;;;;4994559;28;20206;-91
2023/03/17 04:58:44;;;;;;;6.63;3.53;;;7.40;99.90;;;;;;4989050;28;20197;-90
2023/03/17 05:01:12;;;;;;;9.37;4.83;;;7.40;99.90;;;;;;5003581;28;20253;-91
2023/03/17 05:03:39;;;;;;;6.07;3.17;;;7.50;99.90;;;;;;4993097;28;20324;-92
2023/03/17 05:06:07;;;;;;;6.30;3.90;;;7.40;99.90;;;;;;4999175;28;20203;-91
2023/03/17 05:08:34;;;;;;;7.00;3.30;;;7.50;99.90;;;;;;4989025;28;20218;-89
2023/03/17 05:11:04;;;;;;;5.67;3.40;;;7.50;99.90;;;;;;4991999;28;20225;-90
2023/03/17 05:13:32;;;;;;;4.57;3.20;;;7.50;99.90;;;;;;4999879;28;20724;-90
2023/03/17 05:16:00;;;;;;;4.20;3.33;;;7.50;99.90;;;;;;4990179;28;20206;-91
2023/03/17 05:18:27;;;;;;;4.90;3.30;;;7.50;99.90;;;;;;4987741;28;20231;-90
2023/03/17 05:20:57;;;;;;;7.30;3.30;;;7.50;99.90;;;;;;4988452;28;20220;-91
2023/03/17 05:23:25;;;;;;;5.60;3.60;;;7.50;99.90;;;;;;4988345;28;20720;-91
2023/03/17 05:25:58;;;;;;;4.93;3.43;;;7.60;99.90;;;;;;4986640;28;20205;-88
2023/03/17 05:28:26;;;;;;;5.23;3.43;;;7.50;99.90;;;;;;5005916;28;20236;-90
2023/03/17 05:30:54;;;;;;;5.43;3.63;;;7.50;99.90;;;;;;5005072;28;20212;-90
2023/03/17 05:33:21;;;;;;;6.57;3.37;;;7.30;99.90;;;;;;4973026;28;20228;-91
2023/03/17 05:35:49;;;;;;;5.97;3.87;;;7.30;99.90;;;;;;5008448;28;20201;-90
2023/03/17 05:38:22;;;;;;;9.07;3.50;;;7.30;99.90;;;;;;4991769;28;20248;-91
2023/03/17 05:40:56;;;;;;;6.33;3.93;;;7.30;99.90;;;;;;4993747;28;20255;-90
2023/03/17 05:43:27;;;;;;;7.67;4.00;;;7.30;99.90;;;;;;4981993;28;20216;-90
2023/03/17 05:45:54;;;;;;;5.23;3.60;;;7.20;99.90;;;;;;4988881;28;20197;-91
2023/03/17 05:48:26;;;;;;;7.33;4.27;;;7.20;99.90;;;;;;4988530;28;20215;-91
2023/03/17 05:50:59;;;;;;;6.63;3.33;;;7.30;99.90;;;;;;4983980;28;20228;-92
2023/03/17 05:53:27;;;;;;;6.47;4.50;;;7.20;99.90;;;;;;4983350;28;20222;-92
2023/03/17 05:55:55;;;;;;;8.07;4.10;;;7.20;99.90;;;;;;4987631;28;20286;-92
2023/03/17 05:58:23;;;;;;;5.97;4.77;;;7.10;99.90;;;;;;4988439;28;20224;-90
2023/03/17 06:00:50;;;;;;;6.50;4.10;;;7.20;99.90;;;;;;4988563;28;20312;-92
2023/03/17 06:03:17;;;;;;;7.50;4.37;;;7.20;99.90;;;;;;5004898;28;20272;-92
2023/03/17 06:05:50;;;;;;;7.20;4.77;;;7.20;99.90;;;;;;5005367;28;20209;-90
2023/03/17 06:08:18;;;;;;;9.27;4.87;;;7.20;99.90;;;;;;5005176;28;20219;-91
2023/03/17 06:10:46;;;;;;;7.60;4.37;;;7.20;99.90;;;;;;4983570;28;20283;-91
2023/03/17 06:13:14;;;;;;;5.13;4.03;;;7.20;99.90;;;;;;4975459;28;20282;-87
2023/03/17 06:15:44;;;;;;;6.37;4.67;;;7.20;99.90;;;;;;4978866;28;20582;-92
2023/03/17 06:18:13;;;;;;;6.57;4.37;;;7.30;99.90;;;;;;4985057;28;20210;-88
2023/03/17 06:20:54;;;;;;;8.27;4.40;;;7.30;99.90;;;;;;4988211;28;20248;-91
2023/03/17 06:23:23;;;;;;;5.73;4.30;;;7.30;99.90;;;;;;4982812;28;20900;-89
2023/03/17 06:25:55;;;;;;;7.43;4.77;;;7.30;99.90;;;;;;4981056;28;20221;-92
2023/03/17 06:28:30;;;;;;;7.40;5.13;;;7.40;99.90;;;;;;4986463;28;20208;-88
2023/03/17 06:30:58;;;;;;;5.97;4.20;;;7.40;99.90;;;;;;4986188;28;20309;-90
2023/03/17 06:33:27;;;;;;;8.40;4.57;;;7.50;99.90;;;;;;4988156;28;20226;-88
2023/03/17 06:36:02;;;;;;;10.30;4.70;;;7.50;99.90;;;;;;4992500;28;20218;-92
2023/03/17 06:38:33;;;;;;;6.17;5.03;;;7.50;99.90;;;;;;5008379;28;20199;-92
2023/03/17 06:41:00;;;;;;;5.70;4.23;;;7.50;99.90;;;;;;4995491;28;20236;-86
2023/03/17 06:43:27;;;;;;;9.27;4.13;;;7.60;99.90;;;;;;4992245;28;20228;-85
2023/03/17 06:46:02;;;;;;;6.03;4.40;;;7.70;99.90;;;;;;5001715;28;20201;-90
2023/03/17 06:48:43;;;;;;;6.33;4.37;;;7.60;99.90;;;;;;4989926;28;20358;-86
2023/03/17 06:51:12;;;;;;;7.47;4.67;;;7.60;99.90;;;;;;4991896;28;20202;-91
2023/03/17 06:53:42;;;;;;;6.40;4.37;;;7.80;99.90;;;;;;4983871;28;20217;-84
2023/03/17 06:56:09;;;;;;;7.83;4.70;;;7.80;99.90;;;;;;4988980;28;20491;-86
2023/03/17 06:58:54;;;;;;;7.00;4.83;;;7.90;99.90;;;;;;4993865;28;20218;-86
2023/03/17 07:01:22;;;;;;;9.37;4.80;;;7.90;99.90;;;;;;4993704;28;20378;-84
2023/03/17 07:03:50;;;;;;;5.77;4.33;;;8.10;99.90;;;;;;4995862;28;20588;-90
2023/03/17 07:06:19;;;;;;;7.60;4.23;;;8.10;99.90;;;;;;5005924;28;20212;-93
2023/03/17 07:08:49;;;;;;;6.10;4.77;;;8.30;99.90;;;;;;4985659;28;20242;-91
2023/03/17 07:11:17;;;;;;;6.40;5.13;;;8.30;99.90;;;;;;4981535;28;20211;-91
2023/03/17 07:13:50;;;;;;;7.83;4.67;;;8.50;99.90;;;;;;4975748;28;20232;-92
2023/03/17 07:16:31;;;;;;;8.20;4.77;;;8.70;99.90;;;;;;4975208;28;20233;-92
2023/03/17 07:19:54;;;;;;;7.70;4.40;;;9.20;99.90;;;;;;4949417;28;20246;-91
2023/03/17 07:23:02;;;;;;;6.53;4.37;;;10.10;99.90;;;;;;4969363;28;20220;-93
2023/03/17 07:25:35;;;;;;;7.87;4.30;;;10.10;99.90;;;;;;4976483;28;20220;-92
2023/03/17 07:28:15;;;;;;;6.47;4.60;;;10.10;99.90;;;;;;4984378;28;20288;-92
2023/03/17 07:30:47;;;;;;;6.60;4.47;;;10.20;99.90;;;;;;4981326;28;20210;-92
2023/03/17 07:33:29;;;;;;;5.73;4.10;;;10.20;99.90;;;;;;4983937;28;20227;-92
2023/03/17 07:36:06;;;;;;;5.83;4.57;;;10.40;99.90;;;;;;4995299;28;20214;-94
2023/03/17 07:38:35;;;;;;;6.27;4.37;;;10.90;99.90;;;;;;5001025;28;20207;-91
2023/03/17 07:41:03;;;;;;;9.50;4.93;;;11.60;99.90;;;;;;4991985;28;20234;-93
2023/03/17 07:43:30;;;;;;;7.13;3.93;;;10.80;99.90;;;;;;4985543;28;20223;-93
2023/03/17 07:45:58;;;;;;;8.43;4.50;;;11.00;99.90;;;;;;4984773;28;20203;-89
2023/03/17 07:48:25;;;;;;;6.60;4.30;;;11.10;99.90;;;;;;4978820;28;20223;-88
2023/03/17 07:50:52;;;;;;;5.20;4.10;;;11.20;99.90;;;;;;4975824;28;20284;-87
2023/03/17 07:53:19;;;;;;;6.67;4.03;;;11.30;99.90;;;;;;4976141;28;20299;-87
2023/03/17 07:55:52;;;;;;;6.87;4.60;;;11.30;99.90;;;;;;4989217;28;20208;-88
2023/03/17 07:58:20;;;;;;;5.93;4.10;;;11.40;99.90;;;;;;4994283;28;20211;-89
2023/03/17 08:00:48;;;;;;;8.67;4.30;;;11.50;99.90;;;;;;4990049;28;20607;-90
2023/03/17 08:03:18;;;;;;;4.73;3.83;;;11.70;99.90;;;;;;4982887;28;20641;-90
2023/03/17 08:05:52;;;;;;;5.80;4.30;;;11.80;99.90;;;;;;4973349;28;20211;-90
2023/03/17 08:08:20;;;;;;;7.27;4.47;;;11.90;99.90;;;;;;4981902;28;20273;-91
2023/03/17 08:10:48;;;;;;;5.00;4.23;;;12.00;99.90;;;;;;4992310;28;20330;-92
2023/03/17 08:13:17;;;;;;;5.90;4.10;;;12.10;99.90;;;;;;4999333;28;20257;-89
2023/03/17 08:15:46;;;;;;;7.17;3.57;;;12.20;99.90;;;;;;4987006;28;20203;-90
2023/03/17 08:18:13;;;;;;;7.53;3.80;;;12.40;99.90;;;;;;4986611;28;20230;-90
2023/03/17 08:20:40;;;;;;;5.10;3.80;;;12.60;99.90;;;;;;4985370;28;20237;-92
2023/03/17 08:23:08;;;;;;;5.30;3.70;;;12.90;99.90;;;;;;4985965;28;20208;-90
2023/03/17 08:25:35;;;;;;;7.77;3.83;;;13.20;99.90;;;;;;4994153;28;20218;-89
2023/03/17 08:28:15;;;;;;;;;;;;;;;;;;;;;
2023/03/17 08:30:46;;;;;;;5.22;3.67;;;13.90;99.90;;;;;;5002533;28;20222;-90
2023/03/17 08:33:19;;;;;;;6.05;3.45;;;14.30;99.90;;;;;;5002784;28;20245;-90
2023/03/17 08:35:47;;;;;;;6.22;3.47;;;14.60;99.90;;;;;;4986343;28;20211;-91
2023/03/17 08:38:16;;;;;;;4.95;3.50;;;14.90;99.90;;;;;;4966984;28;20204;-90
2023/03/17 08:40:45;;;;;;;6.80;3.67;;;15.20;99.90;;;;;;4990855;28;20227;-90
2023/03/17 08:43:15;;;;;;;3.85;3.45;;;15.50;99.90;;;;;;4974831;28;20298;-93
2023/03/17 08:45:45;;;;;;;8.38;3.30;;;15.80;99.90;;;;;;4986943;28;20211;-90
2023/03/17 08:48:12;;;;;;;4.70;3.00;;;16.10;99.90;;;;;;5004009;28;20231;-91
2023/03/17 08:50:40;;;;;;;4.43;2.83;;;16.30;99.90;;;;;;4993940;28;20211;-91
2023/03/17 08:53:07;;;;;;;5.40;2.92;;;16.70;99.90;;;;;;4979338;28;20211;-92
2023/03/17 08:55:36;;;;;;;5.78;3.00;;;17.00;99.90;;;;;;5002478;28;20329;-91
2023/03/17 08:58:04;;;;;;;5.32;2.70;;;17.40;99.90;;;;;;5002893;28;20211;-90
2023/03/17 09:00:31;;;;;;;4.80;3.00;;;17.60;99.90;;;;;;4987587;28;20243;-90
2023/03/17 09:02:59;;;;;;;7.20;2.90;;;17.70;99.90;;;;;;5006086;28;20229;-90
2023/03/17 09:05:30;;;;;;;5.80;3.13;;;17.80;99.90;;;;;;4985366;28;20226;-90
2023/03/17 09:07:58;;;;;;;2.95;2.58;;;17.90;99.90;;;;;;5002367;28;20204;-90
2023/03/17 09:10:31;;;;;;;5.30;3.28;;;18.00;99.90;;;;;;4985607;28;20223;-90
2023/03/17 09:13:03;;;;;;;4.53;2.70;;;18.20;99.90;;;;;;4970242;28;20242;-91
2023/03/17 09:15:32;;;;;;;4.10;3.33;;;18.30;99.90;;;;;;4986152;28;20204;-91
2023/03/17 09:18:03;;;;;;;6.80;3.08;;;18.30;99.90;;;;;;4991937;28;20227;-92
2023/03/17 09:20:32;;;;;;;5.18;2.70;;;18.40;99.90;;;;;;4985328;28;20231;-90
2023/03/17 09:23:11;;;;;;;3.65;2.60;;;18.40;99.90;;;;;;4989562;28;20310;-91
2023/03/17 09:25:42;;;;;;;5.03;2.80;;;18.40;99.90;;;;;;5001730;28;20241;-91
2023/03/17 09:28:12;;;;;;;5.75;3.03;;;18.20;99.90;;;;;;4986871;28;20207;-91
2023/03/17 09:30:44;;;;;;;6.28;3.28;;;18.30;99.90;;;;;;4982104;28;20227;-93
2023/03/17 09:33:19;;;;;;;7.93;3.35;;;18.20;99.90;;;;;;4974049;28;20299;-92
2023/03/17 09:35:53;;;;;;;5.40;2.97;;;18.30;99.90;;;;;;4966966;28;20303;-91
2023/03/17 09:38:31;;;;;;;6.55;3.80;;;18.30;99.90;;;;;;4996998;28;20207;-92
2023/03/17 09:41:18;;;;;;;3.65;2.80;;;18.20;99.90;;;;;;4986068;28;20285;-93
2023/03/17 09:44:04;;;;;;;3.55;2.67;;;18.20;99.90;;;;;;4982186;28;20223;-92
2023/03/17 09:47:26;;;;;;;;;;;;;;;;;;;;;
2023/03/17 09:50:25;;;;;;;4.35;2.90;;;18.20;99.90;;;;;;4975580;28;20795;-91
2023/03/17 09:53:00;;;;;;;6.95;3.83;;;18.20;99.90;;;;;;4987698;28;20309;-92
2023/03/17 09:55:33;;;;;;;6.97;3.22;;;18.20;99.90;;;;;;4993457;28;20298;-91
2023/03/17 09:58:02;;;;;;;4.75;3.08;;;18.20;99.90;;;;;;4985785;28;20676;-91
2023/03/17 10:00:33;;;;;;;7.47;3.30;;;18.30;99.90;;;;;;4985111;28;20330;-90
2023/03/17 10:03:10;;;;;;;4.32;3.28;;;18.20;99.90;;;;;;5001310;28;20229;-91
2023/03/17 10:05:39;;;;;;;9.05;3.58;;;18.10;99.90;;;;;;4988346;28;20219;-92
2023/03/17 10:08:32;;;;;;;6.93;3.40;;;17.90;99.90;;;;;;4986180;28;20226;-90
2023/03/17 10:11:32;;;;;;;6.95;3.40;;;17.70;99.90;;;;;;4986182;28;20208;-91
2023/03/17 10:14:28;;;;;;;5.00;3.28;;;17.60;99.90;;;;;;4979340;28;20218;-91
2023/03/17 10:17:16;;;;;;;7.47;3.50;;;17.40;99.90;;;;;;5001385;28;20234;-92
2023/03/17 10:20:05;;;;;;;6.97;4.03;;;17.30;99.90;;;;;;5000323;28;20211;-90
2023/03/17 10:23:02;;;;;;;6.40;3.38;;;17.10;99.90;;;;;;4966067;28;20196;-92
2023/03/17 10:25:33;;;;;;;5.68;3.78;;;17.00;99.90;;;;;;4960745;28;20204;-84
2023/03/17 10:28:07;;;;;;;5.30;3.55;;;16.70;99.90;;;;;;4991338;28;20219;-86
2023/03/17 10:30:36;;;;;;;7.13;3.47;;;16.80;99.90;;;;;;5000479;28;20583;-89
2023/03/17 10:33:06;;;;;;;7.43;3.80;;;16.80;99.90;;;;;;4988016;28;20207;-91
2023/03/17 10:35:38;;;;;;;6.15;3.70;;;16.80;99.90;;;;;;4985670;28;20214;-91
2023/03/17 10:38:20;;;;;;;8.15;3.60;;;16.80;99.90;;;;;;4986039;28;20261;-90
2023/03/17 10:41:01;;;;;;;5.93;3.88;;;16.90;99.90;;;;;;4993694;28;20243;-89
2023/03/17 10:43:46;;;;;;;4.68;3.22;;;16.90;99.90;;;;;;4987277;28;20234;-90
2023/03/17 10:46:33;;;;;;;4.97;3.05;;;16.90;99.90;;;;;;4999384;28;20258;-90
2023/03/17 10:49:21;;;;;;;5.18;3.80;;;17.00;99.90;;;;;;4997984;28;20664;-88
2023/03/17 10:51:52;;;;;;;5.32;3.70;;;16.90;99.90;;;;;;4987753;28;20250;-91
2023/03/17 10:54:25;;;;;;;9.45;3.70;;;16.90;99.90;;;;;;4983248;28;20211;-90
2023/03/17 10:57:05;;;;;;;7.57;4.28;;;16.90;99.90;;;;;;4989943;28;20215;-90
2023/03/17 10:59:44;;;;;;;6.05;3.85;;;17.00;99.90;;;;;;4998708;28;20932;-90
2023/03/17 11:02:22;;;;;;;8.15;3.78;;;17.00;99.90;;;;;;4983188;28;20285;-90
2023/03/17 11:04:54;;;;;;;7.90;3.78;;;17.00;99.90;;;;;;4993583;28;20655;-88
2023/03/17 11:07:37;;;;;;;6.82;3.80;;;16.90;99.90;;;;;;4985826;28;20703;-86
2023/03/17 11:10:22;;;;;;;6.90;3.75;;;17.10;99.90;;;;;;4982590;28;20224;-89
2023/03/17 11:13:00;;;;;;;5.95;3.83;;;17.10;99.90;;;;;;4979277;28;20245;-88
2023/03/17 11:15:41;;;;;;;6.32;3.63;;;17.20;99.90;;;;;;4980256;28;20218;-89
2023/03/17 11:18:27;;;;;;;8.07;4.28;;;17.20;99.90;;;;;;4980318;28;20223;-90
2023/03/17 11:21:17;;;;;;;6.57;4.10;;;17.30;99.90;;;;;;4997036;28;20230;-87
2023/03/17 11:24:03;;;;;;;5.55;3.83;;;17.50;99.90;;;;;;4982080;28;20214;-89
2023/03/17 11:26:44;;;;;;;7.55;4.30;;;17.60;99.90;;;;;;4981917;28;20203;-89
2023/03/17 11:30:01;;;;;;;;;;;;;;;;;;;;;
2023/03/17 11:32:35;;;;;;;7.20;3.92;;;17.90;99.90;;;;;;4986833;28;20698;-89
2023/03/17 11:35:37;;;;;;;7.65;4.00;;;17.90;99.90;;;;;;4983702;28;20199;-90
2023/03/17 11:38:41;;;;;;;6.85;4.40;;;17.90;99.90;;;;;;4981938;28;20218;-93
2023/03/17 11:41:47;;;;;;;7.80;4.25;;;17.70;99.90;;;;;;4937069;28;20222;-92
2023/03/17 11:44:20;;;;;;;7.38;4.22;;;17.60;99.90;;;;;;4988652;28;20284;-93
2023/03/17 11:47:27;;;;;;;;;;;;;;;;;;;;;
2023/03/17 11:50:40;;;;;;;6.05;4.13;;;17.60;99.90;;;;;;5006345;28;20206;-91
2023/03/17 11:53:46;;;;;;;6.93;4.05;;;17.60;99.90;;;;;;4982668;28;20200;-92
2023/03/17 11:56:50;;;;;;;6.00;4.13;;;17.90;99.90;;;;;;5003772;28;20195;-88
2023/03/17 11:59:29;;;;;;;7.18;4.35;;;18.10;99.90;;;;;;5009657;28;20302;-87
2023/03/17 12:02:30;;;;;;;6.10;4.43;;;18.20;99.90;;;;;;5001162;28;20222;-87
2023/03/17 12:05:08;;;;;;;6.78;4.75;;;18.30;99.90;;;;;;4970254;28;20208;-89
2023/03/17 12:07:46;;;;;;;7.75;4.65;;;18.20;99.90;;;;;;4985645;28;20194;-87
2023/03/17 12:10:39;;;;;;;5.45;4.43;;;18.40;99.90;;;;;;4975931;28;20214;-87
2023/03/17 12:13:14;;;;;;;6.88;4.30;;;18.40;99.90;;;;;;5004733;28;20333;-90
2023/03/17 12:15:49;;;;;;;5.70;4.32;;;18.40;99.90;;;;;;5006110;28;20302;-88
2023/03/17 12:18:31;;;;;;;7.07;4.22;;;18.50;99.90;;;;;;4994663;28;20223;-91
2023/03/17 12:21:32;;;;;;;9.77;5.18;;;18.60;99.90;;;;;;5010900;28;20218;-93
2023/03/17 12:24:39;;;;;;;8.63;4.78;;;18.60;99.90;;;;;;4985783;28;20211;-86
2023/03/17 12:27:32;;;;;;;7.30;4.97;;;18.60;99.90;;;;;;4999856;28;20207;-91
2023/03/17 12:30:25;;;;;;;5.95;4.55;;;18.50;99.90;;;;;;4987228;28;20226;-90
2023/03/17 12:33:14;;;;;;;11.13;5.38;;;18.50;99.90;;;;;;4983068;28;20223;-88
2023/03/17 12:35:43;;;;;;;9.05;5.25;;;18.60;99.90;;;;;;4960946;28;20200;-87
2023/03/17 12:38:37;;;;;;;8.60;5.03;;;18.70;99.90;;;;;;4959542;28;20200;-87
2023/03/17 12:41:45;;;;;;;11.48;5.30;;;18.90;99.90;;;;;;4960171;28;20243;-90
2023/03/17 12:44:29;;;;;;;11.90;4.95;;;19.10;99.90;;;;;;4974742;28;20203;-92
2023/03/17 12:47:16;;;;;;;6.65;4.90;;;19.30;99.90;;;;;;4984720;28;20198;-90
2023/03/17 12:50:05;;;;;;;8.45;5.35;;;19.40;99.90;;;;;;4993010;28;20198;-93
2023/03/17 12:52:33;;;;;;;7.65;4.85;;;19.50;99.90;;;;;;5013050;28;20196;-91
2023/03/17 12:55:08;;;;;;;8.23;4.95;;;19.60;99.90;;;;;;5015554;28;20520;-92
2023/03/17 12:57:45;;;;;;;7.45;4.70;;;19.70;99.90;;;;;;5015929;28;20217;-92
2023/03/17 13:00:32;;;;;;;6.70;4.68;;;19.80;99.90;;;;;;5016338;28;20207;-92
2023/03/17 13:03:22;;;;;;;6.95;4.80;;;19.80;99.90;;;;;;5016056;28;20292;-93
2023/03/17 13:06:02;;;;;;;7.28;4.60;;;19.80;99.90;;;;;;5015753;28;20203;-93
2023/03/17 13:08:34;;;;;;;12.43;5.10;;;19.80;99.90;;;;;;5002152;28;20188;-94
2023/03/17 13:11:17;;;;;;;6.82;4.53;;;19.80;99.90;;;;;;4995920;28;20230;-91
2023/03/17 13:13:53;;;;;;;7.07;4.45;;;19.80;99.90;;;;;;4991791;28;20285;-93
2023/03/17 13:16:37;;;;;;;9.05;5.20;;;19.80;99.90;;;;;;4991680;28;20199;-95
2023/03/17 13:19:22;;;;;;;9.20;5.03;;;19.70;99.90;;;;;;4993075;28;20219;-92
2023/03/17 13:22:12;;;;;;;8.65;5.28;;;19.70;99.90;;;;;;4992005;28;20223;-94
2023/03/17 13:24:51;;;;;;;7.20;4.75;;;19.60;99.90;;;;;;4991549;28;20294;-94
2023/03/17 13:27:33;;;;;;;9.02;5.10;;;19.60;99.90;;;;;;4994096;28;20218;-93
2023/03/17 13:30:26;;;;;;;6.70;4.70;;;19.70;99.90;;;;;;4994274;28;20191;-94
2023/03/17 13:33:09;;;;;;;6.38;4.25;;;19.60;99.90;;;;;;4993700;28;20191;-95
2023/03/17 13:36:21;;;;;;;6.65;4.60;;;19.70;99.90;;;;;;4991183;28;20263;-94
2023/03/17 13:39:02;;;;;;;8.27;4.53;;;19.70;99.90;;;;;;4967114;28;20200;-95